Weather at Jobabo Northwest Airport

Public forecast

Using degrees Celsius for public forecast. Weather courtesy of forecast.io.

Closest aviation weather report (METAR) to Jobabo Northwest Airport

Report is more than 6 hours old.

Closest report is Hermanos Ameijeiras Airport, 21.0 nm (39.0 km) ENE. Retrieved 2016/10/11 14:50 UTC (5 years ago):

MUVT 111450Z 03006KT 340V070 9000 SCT020 27/22 Q1014

Closest aviation forecast (TAF) to Jobabo Northwest Airport

Forecast is more than 12 hours old.

Closest forecast is Sierra Maestra Airport, 39.2 nm (72.6 km) SSE. Retrieved 2020/08/12 12:18 UTC (11 months ago):

TAF COR MUMZ 121100Z 1212/1224 VRB03KT 1000 BR FEW020 TEMPO 1212/1213 4000 BR BECMG 1214/1217 07009KT 9000 TEMPO 1218/1224 VRB10KT 5000 TS SCT018CB BKN020